Time;durP1;ratioP1;P1;durP2;ratioP2;P2;SDS_P1;SDS_P2;PMS_P1;PMS_P2;Temp;Humidity;BMP_temperature;BMP_pressure;BME280_temperature;BME280_humidity;BME280_pressure;Samples;Min_cycle;Max_cycle;Signal;HPM_P1;HPM_P2
2022/10/17 00:01:02;;;;;;;9.48;3.30;;;13.50;99.90;;;;;;5027590;28;20233;-63
2022/10/17 00:03:29;;;;;;;10.75;3.47;;;13.40;99.90;;;;;;4994140;28;20233;-63
2022/10/17 00:05:56;;;;;;;8.23;3.55;;;13.50;99.90;;;;;;5038705;28;20202;-63
2022/10/17 00:08:23;;;;;;;6.65;2.80;;;13.50;99.90;;;;;;5018965;28;20197;-63
2022/10/17 00:10:56;;;;;;;5.25;3.13;;;13.40;99.90;;;;;;5043778;28;20216;-63
2022/10/17 00:13:23;;;;;;;6.75;3.42;;;13.40;99.90;;;;;;5015460;28;20640;-63
2022/10/17 00:15:51;;;;;;;6.43;3.55;;;13.50;99.90;;;;;;5040725;28;20682;-63
2022/10/17 00:18:18;;;;;;;8.00;3.13;;;13.50;99.90;;;;;;5015090;28;20212;-63
2022/10/17 00:20:45;;;;;;;16.00;3.95;;;13.50;99.90;;;;;;5036936;28;20303;-63
2022/10/17 00:23:12;;;;;;;8.93;3.03;;;13.50;99.90;;;;;;5029013;28;20235;-64
2022/10/17 00:25:39;;;;;;;5.70;3.17;;;13.50;99.90;;;;;;5033993;28;20197;-63
2022/10/17 00:28:06;;;;;;;6.80;3.38;;;13.50;99.90;;;;;;5027982;28;20212;-63
2022/10/17 00:30:33;;;;;;;4.80;3.00;;;13.50;99.90;;;;;;5027981;28;20598;-63
2022/10/17 00:33:01;;;;;;;6.00;2.97;;;13.50;99.90;;;;;;5040944;28;20200;-63
2022/10/17 00:35:28;;;;;;;4.90;3.03;;;13.50;99.90;;;;;;4997719;28;20690;-63
2022/10/17 00:37:55;;;;;;;8.50;3.30;;;13.50;99.90;;;;;;5037985;28;20571;-64
2022/10/17 00:40:22;;;;;;;9.13;3.35;;;13.50;99.90;;;;;;5033507;28;20216;-63
2022/10/17 00:42:51;;;;;;;6.32;2.58;;;13.50;99.90;;;;;;5018246;28;20222;-63
2022/10/17 00:45:24;;;;;;;8.07;3.00;;;13.50;99.90;;;;;;5015799;28;20239;-63
2022/10/17 00:47:54;;;;;;;4.05;2.78;;;13.50;99.90;;;;;;5005714;28;20210;-63
2022/10/17 00:50:25;;;;;;;8.10;2.75;;;13.50;99.90;;;;;;4989741;28;20205;-62
2022/10/17 00:52:52;;;;;;;9.18;3.10;;;13.50;99.90;;;;;;5022214;28;20735;-63
2022/10/17 00:55:24;;;;;;;3.78;2.80;;;13.50;99.90;;;;;;5011244;28;20201;-63
2022/10/17 00:57:52;;;;;;;6.53;3.00;;;13.50;99.90;;;;;;5008938;28;20570;-63
2022/10/17 01:00:20;;;;;;;8.10;3.10;;;13.50;99.90;;;;;;5002766;28;20233;-63
2022/10/17 01:02:47;;;;;;;7.22;2.90;;;13.50;99.90;;;;;;5026765;28;20226;-63
2022/10/17 01:05:15;;;;;;;4.20;2.63;;;13.50;99.90;;;;;;4983083;28;20695;-63
2022/10/17 01:07:44;;;;;;;6.25;2.83;;;13.50;99.90;;;;;;5021790;28;20193;-63
2022/10/17 01:10:12;;;;;;;5.20;2.90;;;13.50;99.90;;;;;;5012649;28;20300;-66
2022/10/17 01:12:52;;;;;;;3.63;2.50;;;13.50;99.90;;;;;;5020888;28;20201;-63
2022/10/17 01:15:29;;;;;;;3.60;2.40;;;13.50;99.90;;;;;;5001035;28;20208;-63
2022/10/17 01:18:10;;;;;;;4.63;2.88;;;13.50;99.90;;;;;;5025251;28;20211;-63
2022/10/17 01:20:59;;;;;;;8.55;3.15;;;13.60;99.90;;;;;;4991145;28;20598;-63
2022/10/17 01:24:12;;;;;;;4.60;2.80;;;13.50;99.90;;;;;;5022676;28;20240;-63
2022/10/17 01:26:58;;;;;;;6.28;2.50;;;13.50;99.90;;;;;;5010518;28;20215;-63
2022/10/17 01:29:52;;;;;;;4.07;2.58;;;13.50;99.90;;;;;;5024303;28;20201;-63
2022/10/17 01:32:25;;;;;;;8.25;2.60;;;13.50;99.90;;;;;;4993220;28;20214;-64
2022/10/17 01:34:58;;;;;;;3.75;2.47;;;13.50;99.90;;;;;;5013477;28;20205;-63
2022/10/17 01:37:30;;;;;;;5.30;2.83;;;13.60;99.90;;;;;;4991882;28;20957;-63
2022/10/17 01:40:07;;;;;;;8.43;2.75;;;13.60;99.90;;;;;;5018470;28;20198;-63
2022/10/17 01:42:39;;;;;;;5.40;2.75;;;13.60;99.90;;;;;;5023402;28;20212;-63
2022/10/17 01:45:11;;;;;;;10.02;2.50;;;13.60;99.90;;;;;;5009850;28;20229;-63
2022/10/17 01:47:41;;;;;;;4.82;2.47;;;13.60;99.90;;;;;;5013756;28;20206;-63
2022/10/17 01:50:15;;;;;;;8.88;3.10;;;13.60;99.90;;;;;;5021856;28;20189;-64
2022/10/17 01:52:46;;;;;;;4.25;2.40;;;13.60;99.90;;;;;;4999811;28;20236;-63
2022/10/17 01:55:18;;;;;;;8.90;2.83;;;13.60;99.90;;;;;;5012068;28;20218;-63
2022/10/17 01:57:49;;;;;;;4.95;2.58;;;13.60;99.90;;;;;;5022412;28;20217;-63
2022/10/17 02:00:19;;;;;;;5.32;2.67;;;13.60;99.90;;;;;;5010533;28;20212;-63
2022/10/17 02:02:49;;;;;;;4.72;2.35;;;13.70;99.90;;;;;;5015712;28;20231;-63
2022/10/17 02:05:18;;;;;;;3.38;2.45;;;13.70;99.90;;;;;;5016768;28;20201;-63
2022/10/17 02:07:45;;;;;;;8.43;2.38;;;13.70;99.90;;;;;;4998635;28;20220;-63
2022/10/17 02:10:19;;;;;;;2.65;2.17;;;13.70;99.90;;;;;;4994334;28;20206;-63
2022/10/17 02:12:54;;;;;;;3.40;2.10;;;13.70;99.90;;;;;;5019124;28;20553;-63
2022/10/17 02:15:33;;;;;;;6.72;2.47;;;13.70;99.90;;;;;;5014122;28;20211;-63
2022/10/17 02:18:15;;;;;;;6.32;2.63;;;13.70;99.90;;;;;;5015488;28;20208;-62
2022/10/17 02:20:51;;;;;;;4.28;2.20;;;13.70;99.90;;;;;;5007883;28;20221;-63
2022/10/17 02:23:24;;;;;;;5.00;2.22;;;13.70;99.90;;;;;;4987735;28;20706;-63
2022/10/17 02:25:59;;;;;;;3.65;2.25;;;13.70;99.90;;;;;;5013997;28;20218;-63
2022/10/17 02:28:34;;;;;;;4.80;2.25;;;13.70;99.90;;;;;;5010602;28;20202;-64
2022/10/17 02:31:04;;;;;;;3.72;2.35;;;13.80;99.90;;;;;;5004800;28;20208;-63
2022/10/17 02:33:37;;;;;;;3.53;2.38;;;13.80;99.90;;;;;;4991919;28;20209;-63
2022/10/17 02:36:09;;;;;;;4.53;2.45;;;13.80;99.90;;;;;;5003629;28;20205;-63
2022/10/17 02:38:36;;;;;;;2.05;1.85;;;13.80;99.90;;;;;;4995004;28;20209;-63
2022/10/17 02:41:06;;;;;;;2.63;1.98;;;13.80;99.90;;;;;;5008251;28;20213;-63
2022/10/17 02:43:33;;;;;;;2.22;2.05;;;13.80;99.90;;;;;;5015977;28;20225;-63
2022/10/17 02:46:00;;;;;;;3.35;2.20;;;13.80;99.90;;;;;;5037092;28;21461;-64
2022/10/17 02:48:35;;;;;;;3.78;2.45;;;13.80;99.90;;;;;;5025082;28;20209;-63
2022/10/17 02:51:07;;;;;;;2.95;2.25;;;13.70;99.90;;;;;;5042924;28;20201;-63
2022/10/17 02:53:38;;;;;;;2.40;2.20;;;13.80;99.90;;;;;;5013712;28;20224;-63
2022/10/17 02:56:11;;;;;;;4.38;2.05;;;13.80;99.90;;;;;;5029417;28;20255;-63
2022/10/17 02:58:40;;;;;;;2.58;1.83;;;13.80;99.90;;;;;;5034987;28;20205;-63
2022/10/17 03:01:07;;;;;;;4.35;2.30;;;13.70;99.90;;;;;;5030614;28;20201;-63
2022/10/17 03:03:35;;;;;;;3.03;2.30;;;13.70;99.90;;;;;;5035585;28;20232;-63
2022/10/17 03:06:02;;;;;;;6.13;2.47;;;13.70;99.90;;;;;;5029777;28;20692;-64
2022/10/17 03:08:29;;;;;;;3.47;2.42;;;13.70;99.90;;;;;;5009784;28;20770;-65
2022/10/17 03:10:56;;;;;;;3.90;2.42;;;13.70;99.90;;;;;;5024551;28;20197;-63
2022/10/17 03:13:22;;;;;;;4.03;2.38;;;13.70;99.90;;;;;;5010168;28;20205;-63
2022/10/17 03:15:49;;;;;;;4.53;2.67;;;13.70;99.90;;;;;;5042813;28;20215;-63
2022/10/17 03:18:16;;;;;;;3.58;2.40;;;13.70;99.90;;;;;;5033861;28;20775;-62
2022/10/17 03:20:44;;;;;;;4.47;2.47;;;13.70;99.90;;;;;;5024558;28;20227;-63
2022/10/17 03:23:11;;;;;;;7.63;2.83;;;13.70;99.90;;;;;;5032373;28;20227;-63
2022/10/17 03:25:38;;;;;;;3.10;2.55;;;13.70;99.90;;;;;;4999916;28;20204;-63
2022/10/17 03:28:05;;;;;;;5.20;2.55;;;13.70;99.90;;;;;;5037654;28;20205;-63
2022/10/17 03:30:32;;;;;;;6.57;2.47;;;13.70;99.90;;;;;;5014990;28;20204;-63
2022/10/17 03:32:59;;;;;;;4.55;2.53;;;13.70;99.90;;;;;;5032037;28;20213;-63
2022/10/17 03:35:26;;;;;;;5.90;2.70;;;13.70;99.90;;;;;;5026851;28;20204;-63
2022/10/17 03:37:55;;;;;;;5.20;2.22;;;13.70;99.90;;;;;;5020127;28;20208;-63
2022/10/17 03:40:22;;;;;;;5.85;2.67;;;13.70;99.90;;;;;;5005791;28;20564;-64
2022/10/17 03:42:49;;;;;;;3.08;2.40;;;13.70;99.90;;;;;;5040989;28;20205;-63
2022/10/17 03:45:16;;;;;;;7.78;2.83;;;13.70;99.90;;;;;;5015002;28;20264;-63
2022/10/17 03:47:42;;;;;;;5.97;2.70;;;13.70;99.90;;;;;;5009995;28;20206;-62
2022/10/17 03:50:09;;;;;;;2.60;2.40;;;13.70;99.90;;;;;;5001711;28;20226;-63
2022/10/17 03:52:36;;;;;;;6.55;2.58;;;13.60;99.90;;;;;;4995144;28;20225;-63
2022/10/17 03:55:05;;;;;;;4.85;2.60;;;13.60;99.90;;;;;;4981857;28;20235;-63
2022/10/17 03:57:34;;;;;;;2.97;2.65;;;13.60;99.90;;;;;;5011232;28;20222;-63
2022/10/17 04:00:00;;;;;;;2.97;2.67;;;13.60;99.90;;;;;;5010626;28;20221;-62
2022/10/17 04:02:27;;;;;;;3.22;2.33;;;13.60;99.90;;;;;;5002191;28;20217;-63
2022/10/17 04:04:54;;;;;;;5.72;2.50;;;13.60;99.90;;;;;;5011946;28;20252;-63
2022/10/17 04:07:21;;;;;;;3.90;2.80;;;13.60;99.90;;;;;;5010777;28;20201;-63
2022/10/17 04:09:47;;;;;;;7.88;2.65;;;13.60;99.90;;;;;;4998225;28;20264;-63
2022/10/17 04:12:16;;;;;;;3.50;2.85;;;13.60;99.90;;;;;;4989927;28;20210;-63
2022/10/17 04:14:42;;;;;;;4.30;2.30;;;13.70;99.90;;;;;;5017753;28;20220;-63
2022/10/17 04:17:09;;;;;;;3.40;2.60;;;13.60;99.90;;;;;;4985872;28;20679;-63
2022/10/17 04:19:36;;;;;;;4.10;2.95;;;13.70;99.90;;;;;;5006668;28;20207;-63
2022/10/17 04:22:03;;;;;;;5.15;2.65;;;13.70;99.90;;;;;;5004162;28;20233;-63
2022/10/17 04:24:30;;;;;;;6.05;4.38;;;13.70;99.90;;;;;;5015773;28;20771;-64
2022/10/17 04:26:56;;;;;;;3.53;2.60;;;13.70;99.90;;;;;;4989449;28;20205;-63
2022/10/17 04:29:25;;;;;;;6.97;3.22;;;13.70;99.90;;;;;;5005066;28;20205;-63
2022/10/17 04:31:52;;;;;;;2.60;2.40;;;13.70;99.90;;;;;;5007425;28;20296;-63
2022/10/17 04:34:19;;;;;;;4.90;2.40;;;13.70;99.90;;;;;;4997436;28;20892;-63
2022/10/17 04:36:46;;;;;;;10.40;2.90;;;13.70;99.90;;;;;;4981164;28;20729;-63
2022/10/17 04:39:13;;;;;;;6.18;3.20;;;13.60;99.90;;;;;;4973501;28;20229;-64
2022/10/17 04:41:40;;;;;;;4.32;2.70;;;13.70;99.90;;;;;;4957724;28;21631;-63
2022/10/17 04:44:07;;;;;;;4.78;3.13;;;13.70;99.90;;;;;;4968886;28;20260;-63
2022/10/17 04:46:35;;;;;;;3.08;2.80;;;13.70;99.90;;;;;;4989273;28;20226;-64
2022/10/17 04:49:02;;;;;;;3.30;3.00;;;13.70;99.90;;;;;;4996127;28;20231;-63
2022/10/17 04:51:28;;;;;;;4.82;2.88;;;13.70;99.90;;;;;;4991207;28;20229;-63
2022/10/17 04:53:55;;;;;;;4.10;2.88;;;13.70;99.90;;;;;;5001513;28;21142;-63
2022/10/17 04:56:24;;;;;;;9.98;2.92;;;13.70;99.90;;;;;;4997292;28;20201;-63
2022/10/17 04:58:51;;;;;;;6.38;2.97;;;13.70;99.90;;;;;;4969090;28;20245;-64
2022/10/17 05:01:21;;;;;;;5.10;2.90;;;13.70;99.90;;;;;;5010533;28;20202;-63
2022/10/17 05:03:49;;;;;;;8.73;3.65;;;13.70;99.90;;;;;;4986576;28;20232;-64
2022/10/17 05:06:18;;;;;;;3.13;2.83;;;13.70;99.90;;;;;;4982856;28;20221;-63
2022/10/17 05:08:45;;;;;;;6.15;3.00;;;12.90;99.90;;;;;;4983164;28;20205;-63
2022/10/17 05:11:19;;;;;;;3.20;2.90;;;13.70;99.90;;;;;;5011234;28;20209;-63
2022/10/17 05:13:51;;;;;;;5.30;2.83;;;13.60;99.90;;;;;;4973419;28;20205;-63
2022/10/17 05:16:18;;;;;;;2.85;2.65;;;13.70;99.90;;;;;;5007126;28;20229;-64
2022/10/17 05:18:44;;;;;;;8.25;3.08;;;13.70;99.90;;;;;;5010717;28;20243;-63
2022/10/17 05:21:13;;;;;;;4.55;3.50;;;13.70;99.90;;;;;;4999857;28;20197;-64
2022/10/17 05:23:39;;;;;;;9.48;3.08;;;13.70;99.90;;;;;;5009780;28;20234;-63
2022/10/17 05:26:06;;;;;;;6.13;3.10;;;13.60;99.90;;;;;;5009149;28;20201;-63
2022/10/17 05:28:34;;;;;;;8.23;3.10;;;13.60;99.90;;;;;;4964246;28;21399;-63
2022/10/17 05:31:03;;;;;;;4.03;3.30;;;13.60;99.90;;;;;;4994858;28;20225;-64
2022/10/17 05:33:30;;;;;;;4.28;3.03;;;13.60;99.90;;;;;;4999315;28;20611;-63
2022/10/17 05:35:57;;;;;;;4.13;3.17;;;13.70;99.90;;;;;;4975248;28;22172;-63
2022/10/17 05:38:25;;;;;;;6.18;3.50;;;13.70;99.90;;;;;;5004514;28;20213;-64
2022/10/17 05:40:56;;;;;;;9.55;3.25;;;13.60;99.90;;;;;;4987283;28;20232;-63
2022/10/17 05:43:23;;;;;;;6.65;3.72;;;13.60;99.90;;;;;;5016778;28;20193;-63
2022/10/17 05:45:50;;;;;;;5.35;3.38;;;13.60;99.90;;;;;;5012999;28;20233;-64
2022/10/17 05:48:17;;;;;;;6.35;3.47;;;13.60;99.90;;;;;;5018629;28;20198;-64
2022/10/17 05:50:44;;;;;;;4.47;3.80;;;13.60;99.90;;;;;;5036325;28;20760;-63
2022/10/17 05:53:10;;;;;;;5.28;4.03;;;13.60;99.90;;;;;;5020644;28;20208;-63
2022/10/17 05:55:38;;;;;;;7.63;3.50;;;13.60;99.90;;;;;;5004651;28;20295;-63
2022/10/17 05:58:05;;;;;;;5.40;3.60;;;13.60;99.90;;;;;;5035332;28;20215;-63
2022/10/17 06:00:32;;;;;;;4.60;3.50;;;13.60;99.90;;;;;;4993843;28;20213;-64
2022/10/17 06:02:59;;;;;;;7.38;3.80;;;13.60;99.90;;;;;;5037788;28;20666;-64
2022/10/17 06:05:26;;;;;;;4.45;3.15;;;13.60;99.90;;;;;;5017617;28;20235;-64
2022/10/17 06:07:53;;;;;;;9.15;3.70;;;13.60;99.90;;;;;;5022751;28;20221;-64
2022/10/17 06:10:19;;;;;;;4.00;3.60;;;13.60;99.90;;;;;;5034008;28;21217;-63
2022/10/17 06:12:47;;;;;;;6.47;3.90;;;13.70;99.90;;;;;;5008126;28;20264;-64
2022/10/17 06:15:14;;;;;;;7.82;3.72;;;13.70;99.90;;;;;;5002603;28;20235;-63
2022/10/17 06:17:41;;;;;;;10.82;3.90;;;13.70;99.90;;;;;;5035518;28;20228;-63
2022/10/17 06:20:09;;;;;;;4.43;3.63;;;13.70;99.90;;;;;;5014986;28;20211;-64
2022/10/17 06:22:36;;;;;;;4.13;3.72;;;13.70;99.90;;;;;;5043779;28;20217;-63
2022/10/17 06:25:02;;;;;;;5.60;3.70;;;13.70;99.90;;;;;;5036318;28;20228;-63
2022/10/17 06:27:29;;;;;;;5.20;4.03;;;13.80;99.90;;;;;;5030112;28;20201;-63
2022/10/17 06:29:57;;;;;;;4.13;3.70;;;13.80;99.90;;;;;;5002410;28;20201;-63
2022/10/17 06:32:24;;;;;;;5.22;3.60;;;13.80;99.90;;;;;;5007712;28;20217;-64
2022/10/17 06:34:51;;;;;;;9.85;3.90;;;13.90;99.90;;;;;;5004047;28;20861;-64
2022/10/17 06:37:18;;;;;;;6.90;3.85;;;13.90;99.90;;;;;;5036017;28;20232;-65
2022/10/17 06:39:44;;;;;;;6.15;3.60;;;13.90;99.90;;;;;;5032844;28;20192;-64
2022/10/17 06:42:11;;;;;;;5.68;3.60;;;14.00;99.90;;;;;;5045759;28;20224;-65
2022/10/17 06:44:39;;;;;;;4.13;3.72;;;14.00;99.90;;;;;;5027950;28;20828;-64
2022/10/17 06:47:09;;;;;;;5.10;3.88;;;14.10;99.90;;;;;;5009191;28;20299;-65
2022/10/17 06:49:36;;;;;;;6.90;3.88;;;14.10;99.90;;;;;;5019031;28;20217;-65
2022/10/17 06:52:03;;;;;;;4.60;3.33;;;14.10;99.90;;;;;;5032174;28;20638;-64
2022/10/17 06:54:30;;;;;;;7.55;3.55;;;14.20;99.90;;;;;;5037807;28;20224;-65
2022/10/17 06:56:56;;;;;;;6.32;3.60;;;14.20;99.90;;;;;;5040631;28;20209;-65
2022/10/17 06:59:23;;;;;;;5.38;3.70;;;14.30;99.90;;;;;;5031409;28;20212;-65
2022/10/17 07:01:50;;;;;;;8.93;3.70;;;14.30;99.90;;;;;;5033086;28;23368;-65
2022/10/17 07:04:18;;;;;;;6.38;3.90;;;14.40;99.90;;;;;;4995679;28;20237;-66
2022/10/17 07:06:45;;;;;;;8.23;3.63;;;14.50;99.90;;;;;;5030206;28;20219;-65
2022/10/17 07:09:12;;;;;;;4.57;3.80;;;14.50;99.90;;;;;;5037281;28;20219;-65
2022/10/17 07:11:39;;;;;;;4.80;3.28;;;14.50;99.90;;;;;;5037583;28;20231;-65
2022/10/17 07:14:05;;;;;;;7.70;4.00;;;14.60;99.90;;;;;;5009923;28;20453;-65
2022/10/17 07:16:32;;;;;;;9.85;3.53;;;14.60;99.90;;;;;;5041334;28;20283;-65
2022/10/17 07:19:05;;;;;;;3.78;3.38;;;14.70;99.90;;;;;;5009355;28;20220;-65
2022/10/17 07:21:33;;;;;;;3.58;3.28;;;14.70;99.90;;;;;;5046989;22;20712;-65
2022/10/17 07:24:00;;;;;;;4.03;3.38;;;14.80;99.90;;;;;;5059656;28;20227;-65
2022/10/17 07:26:26;;;;;;;5.38;3.47;;;14.90;99.90;;;;;;5079903;28;20200;-65
2022/10/17 07:28:55;;;;;;;4.30;3.67;;;14.90;99.90;;;;;;5082091;28;20204;-65
2022/10/17 07:31:23;;;;;;;7.63;3.50;;;15.00;99.90;;;;;;5068268;28;20223;-65
2022/10/17 07:33:50;;;;;;;3.80;3.25;;;15.10;99.90;;;;;;5051388;28;20207;-65
2022/10/17 07:36:18;;;;;;;4.13;3.08;;;15.20;99.90;;;;;;5067562;28;20199;-65
2022/10/17 07:38:46;;;;;;;7.50;3.53;;;15.20;99.90;;;;;;5063350;28;20206;-66
2022/10/17 07:41:13;;;;;;;6.10;3.40;;;15.20;99.90;;;;;;5077600;27;20199;-66
2022/10/17 07:43:41;;;;;;;3.95;3.00;;;15.20;99.90;;;;;;5068918;27;20227;-65
2022/10/17 07:46:10;;;;;;;4.45;3.20;;;15.20;99.90;;;;;;5061847;27;20242;-65
2022/10/17 07:48:37;;;;;;;4.85;3.28;;;15.30;99.90;;;;;;5050387;27;20249;-65
2022/10/17 07:51:05;;;;;;;4.05;3.65;;;15.40;99.90;;;;;;5064166;27;20215;-65
2022/10/17 07:53:34;;;;;;;4.88;3.38;;;15.40;99.90;;;;;;5053437;27;20215;-66
2022/10/17 07:56:06;;;;;;;4.57;3.00;;;15.50;99.90;;;;;;5080209;28;20716;-65
2022/10/17 07:58:33;;;;;;;9.68;4.45;;;15.50;99.90;;;;;;5077964;27;20208;-65
2022/10/17 08:01:01;;;;;;;4.07;3.55;;;15.60;99.90;;;;;;5060483;28;20210;-65
2022/10/17 08:03:28;;;;;;;3.90;3.38;;;15.60;99.90;;;;;;5056371;27;20202;-65
2022/10/17 08:05:58;;;;;;;5.28;3.53;;;15.70;99.90;;;;;;5073467;28;20716;-65
2022/10/17 08:08:25;;;;;;;6.93;3.90;;;15.80;99.90;;;;;;5049610;27;20930;-66
2022/10/17 08:10:52;;;;;;;5.20;3.58;;;15.90;99.90;;;;;;5075420;27;20672;-65
2022/10/17 08:13:21;;;;;;;5.97;3.72;;;16.00;99.90;;;;;;5074060;28;20200;-65
2022/10/17 08:15:48;;;;;;;5.72;3.78;;;16.00;99.90;;;;;;5071200;28;20310;-66
2022/10/17 08:18:16;;;;;;;4.38;3.60;;;16.10;99.90;;;;;;5067245;27;20199;-64
2022/10/17 08:20:43;;;;;;;4.05;3.60;;;16.10;99.90;;;;;;5047479;28;20615;-65
2022/10/17 08:23:11;;;;;;;6.25;3.70;;;16.20;99.90;;;;;;5075669;28;20210;-64
2022/10/17 08:25:38;;;;;;;7.88;4.05;;;16.20;99.90;;;;;;5062648;28;20219;-64
2022/10/17 08:28:06;;;;;;;5.53;3.70;;;16.30;99.90;;;;;;5082720;27;20238;-65
2022/10/17 08:30:34;;;;;;;5.57;3.47;;;16.30;99.90;;;;;;5041281;28;20220;-65
2022/10/17 08:33:01;;;;;;;7.97;3.80;;;16.30;99.90;;;;;;5066199;28;20214;-65
2022/10/17 08:35:28;;;;;;;5.80;3.58;;;16.40;99.90;;;;;;5047088;27;20207;-65
2022/10/17 08:37:55;;;;;;;4.43;3.83;;;16.40;99.90;;;;;;5068083;28;20231;-65
2022/10/17 08:40:25;;;;;;;5.93;3.47;;;16.50;99.90;;;;;;5059534;28;20712;-66
2022/10/17 08:43:09;;;;;;;7.72;4.32;;;16.50;99.90;;;;;;5075239;27;20191;-66
2022/10/17 08:45:45;;;;;;;5.50;3.80;;;16.50;99.90;;;;;;5063837;28;20257;-66
2022/10/17 08:48:15;;;;;;;3.40;3.05;;;16.60;99.90;;;;;;5066947;28;20226;-66
2022/10/17 08:50:46;;;;;;;8.38;4.15;;;16.70;99.90;;;;;;5049511;27;20212;-66
2022/10/17 08:53:19;;;;;;;5.63;4.10;;;16.80;99.90;;;;;;5077367;28;20195;-65
2022/10/17 08:55:48;;;;;;;4.35;3.50;;;16.80;99.90;;;;;;5061304;28;20203;-65
2022/10/17 08:58:19;;;;;;;13.20;4.03;;;16.90;99.90;;;;;;5074225;28;20230;-65
2022/10/17 09:00:52;;;;;;;5.68;4.30;;;17.00;99.90;;;;;;5066963;28;20212;-64
2022/10/17 09:03:33;;;;;;;5.07;4.05;;;17.10;99.90;;;;;;5068362;28;20688;-66
2022/10/17 09:06:12;;;;;;;6.68;4.07;;;17.20;99.90;;;;;;5050646;28;20223;-65
2022/10/17 09:08:46;;;;;;;4.55;4.15;;;17.20;99.90;;;;;;5075582;28;20573;-65
2022/10/17 09:11:24;;;;;;;4.35;3.85;;;17.20;99.90;;;;;;5057844;28;20199;-65
2022/10/17 09:14:04;;;;;;;9.27;5.72;;;17.20;99.90;;;;;;5083214;28;20202;-65
2022/10/17 09:16:50;;;;;;;5.38;3.50;;;17.40;99.90;;;;;;5070946;28;20211;-65
2022/10/17 09:19:21;;;;;;;13.52;4.53;;;17.50;99.90;;;;;;5058335;28;20206;-65
2022/10/17 09:21:52;;;;;;;10.55;3.40;;;17.50;99.90;;;;;;5052672;28;20231;-65
2022/10/17 09:24:25;;;;;;;5.20;3.92;;;17.60;99.90;;;;;;5075527;28;20207;-65
2022/10/17 09:26:52;;;;;;;6.90;4.50;;;17.60;99.90;;;;;;5071584;28;20308;-66
2022/10/17 09:29:22;;;;;;;4.85;4.35;;;17.70;99.90;;;;;;5063410;28;20216;-65
2022/10/17 09:31:57;;;;;;;4.93;3.95;;;17.80;99.90;;;;;;5073262;28;20697;-65
2022/10/17 09:34:27;;;;;;;6.18;4.10;;;17.80;99.90;;;;;;5066442;28;20210;-65
2022/10/17 09:36:54;;;;;;;8.23;3.53;;;17.90;99.90;;;;;;5036265;28;20212;-65
2022/10/17 09:39:24;;;;;;;8.77;4.30;;;17.90;99.90;;;;;;5078101;28;20221;-66
2022/10/17 09:41:54;;;;;;;4.80;3.97;;;17.80;99.90;;;;;;5069515;28;20700;-65
2022/10/17 09:44:23;;;;;;;5.75;4.43;;;17.90;99.90;;;;;;5067637;28;20252;-65
2022/10/17 09:47:15;;;;;;;6.25;4.10;;;17.80;99.90;;;;;;5064508;28;20345;-65
2022/10/17 09:49:43;;;;;;;7.38;4.97;;;17.80;99.90;;;;;;5066832;28;20219;-64
2022/10/17 09:52:13;;;;;;;10.30;4.68;;;17.80;99.90;;;;;;5048924;28;20791;-65
2022/10/17 09:54:44;;;;;;;6.60;3.90;;;17.80;99.90;;;;;;5075072;28;20204;-64
2022/10/17 09:57:12;;;;;;;4.78;3.95;;;17.80;99.90;;;;;;5068314;28;20226;-65
2022/10/17 09:59:41;;;;;;;9.50;3.80;;;17.80;99.90;;;;;;5057603;28;20204;-64
2022/10/17 10:02:14;;;;;;;7.53;4.40;;;17.80;99.90;;;;;;5067309;28;20708;-66
2022/10/17 10:04:59;;;;;;;9.10;3.83;;;17.80;99.90;;;;;;5058691;28;20704;-65
2022/10/17 10:07:28;;;;;;;9.50;4.32;;;17.90;99.90;;;;;;5067520;28;20218;-66
2022/10/17 10:09:56;;;;;;;8.43;4.20;;;17.90;99.90;;;;;;5068102;28;20199;-65
2022/10/17 10:12:25;;;;;;;5.10;4.10;;;17.90;99.90;;;;;;5064953;27;20224;-65
2022/10/17 10:14:52;;;;;;;6.32;4.32;;;17.90;99.90;;;;;;5071110;28;20204;-64
2022/10/17 10:17:35;;;;;;;3.95;2.67;;;17.90;99.90;;;;;;5069590;27;20220;-64
2022/10/17 10:20:27;;;;;;;4.13;3.13;;;17.90;99.90;;;;;;5070619;27;20238;-64
2022/10/17 10:23:18;;;;;;;7.35;2.85;;;18.00;99.90;;;;;;5038179;27;20669;-64
2022/10/17 10:25:56;;;;;;;7.35;3.95;;;18.10;99.90;;;;;;5082487;28;20627;-65
2022/10/17 10:28:27;;;;;;;5.50;4.25;;;18.20;99.90;;;;;;5073635;27;20838;-64
2022/10/17 10:30:56;;;;;;;6.00;3.95;;;18.30;99.90;;;;;;5052811;28;21086;-64
2022/10/17 10:33:27;;;;;;;11.25;4.22;;;18.20;99.90;;;;;;5067829;27;20211;-64
2022/10/17 10:36:02;;;;;;;6.95;3.92;;;18.20;99.90;;;;;;5064809;27;20215;-64
2022/10/17 10:38:29;;;;;;;10.02;4.32;;;18.10;99.90;;;;;;5047049;28;20235;-65
2022/10/17 10:41:02;;;;;;;6.65;4.90;;;18.20;99.90;;;;;;5072963;27;20200;-65
2022/10/17 10:43:33;;;;;;;8.18;4.57;;;18.20;99.90;;;;;;5063107;27;20222;-65
2022/10/17 10:46:01;;;;;;;7.22;4.80;;;18.20;99.90;;;;;;5062914;28;20231;-65
2022/10/17 10:48:32;;;;;;;7.60;4.85;;;18.20;99.90;;;;;;5064895;27;20219;-64
2022/10/17 10:51:05;;;;;;;10.20;4.95;;;18.30;99.90;;;;;;5069928;27;20225;-64
2022/10/17 10:53:42;;;;;;;7.85;5.00;;;18.30;99.90;;;;;;5086636;27;21332;-64
2022/10/17 10:56:16;;;;;;;10.18;5.28;;;18.30;99.90;;;;;;5036286;27;20213;-64
2022/10/17 10:58:53;;;;;;;7.40;5.10;;;18.30;99.90;;;;;;5086487;28;20226;-65
2022/10/17 11:01:27;;;;;;;7.22;4.70;;;18.30;99.90;;;;;;5077705;28;20203;-65
2022/10/17 11:04:06;;;;;;;9.10;5.50;;;18.30;99.90;;;;;;5070276;28;20273;-65
2022/10/17 11:06:37;;;;;;;7.13;5.40;;;18.30;99.90;;;;;;5076940;27;20275;-65
2022/10/17 11:09:14;;;;;;;7.78;5.60;;;18.30;99.90;;;;;;5084355;27;20215;-65
2022/10/17 11:11:45;;;;;;;7.35;5.75;;;18.30;99.90;;;;;;5056092;28;20244;-64
2022/10/17 11:14:16;;;;;;;12.20;5.80;;;18.30;99.90;;;;;;5049441;28;20227;-65
2022/10/17 11:16:49;;;;;;;10.38;5.70;;;18.30;99.90;;;;;;5071714;27;20252;-64
2022/10/17 11:19:24;;;;;;;7.47;6.43;;;18.30;99.90;;;;;;5046156;27;20238;-65
2022/10/17 11:22:02;;;;;;;11.00;5.57;;;18.40;99.90;;;;;;5063073;27;20736;-64
2022/10/17 11:24:35;;;;;;;9.65;5.82;;;18.30;99.90;;;;;;5069455;27;20771;-66
2022/10/17 11:27:04;;;;;;;14.68;5.72;;;18.40;99.90;;;;;;5037021;27;20451;-65
2022/10/17 11:29:34;;;;;;;12.50;5.65;;;18.40;99.90;;;;;;5065358;27;20593;-65
2022/10/17 11:32:05;;;;;;;5.85;5.00;;;18.40;99.90;;;;;;5041405;22;20248;-65
2022/10/17 11:34:36;;;;;;;9.32;5.10;;;18.50;99.90;;;;;;5008576;28;20233;-66
2022/10/17 11:37:11;;;;;;;9.80;5.50;;;18.50;99.90;;;;;;5019376;28;20233;-65
2022/10/17 11:39:47;;;;;;;9.15;5.82;;;18.50;99.90;;;;;;5021754;28;20231;-65
2022/10/17 11:42:18;;;;;;;8.02;5.60;;;18.60;99.90;;;;;;4984624;28;20701;-66
2022/10/17 11:44:45;;;;;;;7.72;5.18;;;18.70;99.90;;;;;;5032440;28;20212;-65
2022/10/17 11:47:19;;;;;;;7.88;5.50;;;18.70;99.90;;;;;;5029505;28;20243;-66
2022/10/17 11:49:51;;;;;;;8.35;5.55;;;18.80;99.90;;;;;;5033195;28;20190;-66
2022/10/17 11:52:30;;;;;;;7.88;5.57;;;18.80;99.90;;;;;;5033553;28;20209;-66
2022/10/17 11:55:03;;;;;;;9.43;5.65;;;18.90;99.90;;;;;;5040176;28;20204;-66
2022/10/17 11:57:46;;;;;;;8.57;5.68;;;18.80;99.90;;;;;;5015591;28;20208;-65
2022/10/17 12:00:24;;;;;;;9.10;5.60;;;18.80;99.90;;;;;;5041105;28;20196;-66
2022/10/17 12:02:57;;;;;;;9.73;6.10;;;18.70;99.90;;;;;;5010848;28;20212;-66
2022/10/17 12:05:28;;;;;;;12.63;6.10;;;18.80;99.90;;;;;;5038465;28;20205;-65
2022/10/17 12:08:03;;;;;;;10.88;6.85;;;18.80;99.90;;;;;;5013599;28;21250;-65
2022/10/17 12:10:39;;;;;;;10.38;7.10;;;18.70;99.90;;;;;;5042639;28;20199;-66
2022/10/17 12:13:44;;;;;;;9.23;6.82;;;18.70;99.90;;;;;;5027659;28;20302;-65
2022/10/17 12:16:46;;;;;;;9.27;6.55;;;18.70;99.90;;;;;;5005772;28;20207;-66
2022/10/17 12:19:32;;;;;;;8.73;6.68;;;18.70;99.90;;;;;;4930423;28;21043;-65
2022/10/17 12:22:21;;;;;;;13.45;6.88;;;18.60;99.90;;;;;;4993987;28;20236;-65
2022/10/17 12:24:59;;;;;;;8.60;6.97;;;18.60;99.90;;;;;;5003228;28;20201;-66
2022/10/17 12:27:42;;;;;;;9.02;6.65;;;18.60;99.90;;;;;;5006486;28;20762;-66
2022/10/17 12:30:24;;;;;;;11.30;6.80;;;18.60;99.90;;;;;;5035518;28;20223;-66
2022/10/17 12:33:20;;;;;;;9.05;6.95;;;18.50;99.90;;;;;;5024447;28;20221;-66
2022/10/17 12:35:47;;;;;;;9.13;6.88;;;18.60;99.90;;;;;;5020338;28;20205;-66
2022/10/17 12:38:23;;;;;;;7.47;6.75;;;18.70;99.90;;;;;;4994217;28;20946;-66
2022/10/17 12:40:53;;;;;;;7.97;6.88;;;18.70;99.90;;;;;;5022692;28;20799;-66
2022/10/17 12:43:47;;;;;;;10.23;6.85;;;18.70;99.90;;;;;;5004312;28;20225;-66
2022/10/17 12:46:45;;;;;;;11.05;6.85;;;18.70;99.90;;;;;;5014759;28;20220;-66
2022/10/17 12:49:44;;;;;;;7.20;6.45;;;18.70;99.90;;;;;;5022280;28;20193;-66
2022/10/17 12:52:25;;;;;;;10.30;7.97;;;18.80;99.90;;;;;;4922813;28;20571;-66
2022/10/17 12:55:06;;;;;;;10.48;8.65;;;18.70;99.90;;;;;;5017961;28;21028;-66
2022/10/17 12:57:39;;;;;;;13.45;9.18;;;18.80;99.90;;;;;;5021795;28;20232;-67
2022/10/17 13:00:18;;;;;;;9.50;8.40;;;18.80;99.90;;;;;;5001717;28;20209;-67
2022/10/17 13:02:45;;;;;;;12.10;10.18;;;18.80;99.90;;;;;;5035323;28;20201;-67
2022/10/17 13:05:16;;;;;;;13.23;8.85;;;18.80;99.90;;;;;;5007599;28;20207;-66